sensor_id;sensor_type;location;lat;lon;timestamp;temperature;humidity
13928;DHT22;7036;50.834;4.718;2022-07-23T00:01:49;25.40;60.30
13928;DHT22;7036;50.834;4.718;2022-07-23T00:04:16;25.40;60.30
13928;DHT22;7036;50.834;4.718;2022-07-23T00:06:43;25.40;60.30
13928;DHT22;7036;50.834;4.718;2022-07-23T00:09:10;25.40;60.30
13928;DHT22;7036;50.834;4.718;2022-07-23T00:11:37;25.40;60.30
13928;DHT22;7036;50.834;4.718;2022-07-23T00:14:04;25.40;60.30
13928;DHT22;7036;50.834;4.718;2022-07-23T00:16:31;25.40;60.30
13928;DHT22;7036;50.834;4.718;2022-07-23T00:18:58;25.40;60.30
13928;DHT22;7036;50.834;4.718;2022-07-23T00:21:25;25.40;60.30
13928;DHT22;7036;50.834;4.718;2022-07-23T00:23:52;25.40;60.30
13928;DHT22;7036;50.834;4.718;2022-07-23T00:26:19;25.40;60.30
13928;DHT22;7036;50.834;4.718;2022-07-23T00:28:45;25.40;60.20
13928;DHT22;7036;50.834;4.718;2022-07-23T00:31:12;25.40;60.20
13928;DHT22;7036;50.834;4.718;2022-07-23T00:33:39;25.40;60.20
13928;DHT22;7036;50.834;4.718;2022-07-23T00:36:06;25.30;60.20
13928;DHT22;7036;50.834;4.718;2022-07-23T00:38:33;25.40;60.20
13928;DHT22;7036;50.834;4.718;2022-07-23T00:41:02;25.40;60.20
13928;DHT22;7036;50.834;4.718;2022-07-23T00:43:29;25.40;60.20
13928;DHT22;7036;50.834;4.718;2022-07-23T00:45:56;25.40;60.20
13928;DHT22;7036;50.834;4.718;2022-07-23T00:48:23;25.30;60.10
13928;DHT22;7036;50.834;4.718;2022-07-23T00:50:51;25.30;60.10
13928;DHT22;7036;50.834;4.718;2022-07-23T00:53:19;25.30;60.10
13928;DHT22;7036;50.834;4.718;2022-07-23T00:55:45;25.30;60.10
13928;DHT22;7036;50.834;4.718;2022-07-23T00:58:13;25.30;60.10
13928;DHT22;7036;50.834;4.718;2022-07-23T01:00:42;25.30;60.20
13928;DHT22;7036;50.834;4.718;2022-07-23T01:03:08;25.30;60.10
13928;DHT22;7036;50.834;4.718;2022-07-23T01:05:35;25.30;60.00
13928;DHT22;7036;50.834;4.718;2022-07-23T01:08:02;25.30;60.10
13928;DHT22;7036;50.834;4.718;2022-07-23T01:10:29;25.30;60.00
13928;DHT22;7036;50.834;4.718;2022-07-23T01:12:59;25.30;60.70
13928;DHT22;7036;50.834;4.718;2022-07-23T01:15:25;25.30;60.00
13928;DHT22;7036;50.834;4.718;2022-07-23T01:17:52;25.30;60.00
13928;DHT22;7036;50.834;4.718;2022-07-23T01:20:19;25.30;60.00
13928;DHT22;7036;50.834;4.718;2022-07-23T01:22:46;25.30;60.00
13928;DHT22;7036;50.834;4.718;2022-07-23T01:25:13;25.30;60.00
13928;DHT22;7036;50.834;4.718;2022-07-23T01:27:40;25.20;59.90
13928;DHT22;7036;50.834;4.718;2022-07-23T01:30:07;25.30;60.00
13928;DHT22;7036;50.834;4.718;2022-07-23T01:32:35;25.30;60.20
13928;DHT22;7036;50.834;4.718;2022-07-23T01:35:02;25.20;59.90
13928;DHT22;7036;50.834;4.718;2022-07-23T01:37:29;25.30;60.00
13928;DHT22;7036;50.834;4.718;2022-07-23T01:39:56;25.20;59.90
13928;DHT22;7036;50.834;4.718;2022-07-23T01:42:24;25.20;59.80
13928;DHT22;7036;50.834;4.718;2022-07-23T01:44:50;25.20;59.90
13928;DHT22;7036;50.834;4.718;2022-07-23T01:47:17;25.20;59.80
13928;DHT22;7036;50.834;4.718;2022-07-23T01:49:44;25.20;59.80
13928;DHT22;7036;50.834;4.718;2022-07-23T01:52:11;25.20;59.80
13928;DHT22;7036;50.834;4.718;2022-07-23T01:54:38;25.20;59.80
13928;DHT22;7036;50.834;4.718;2022-07-23T01:57:05;25.20;59.80
13928;DHT22;7036;50.834;4.718;2022-07-23T01:59:31;25.20;59.80
13928;DHT22;7036;50.834;4.718;2022-07-23T02:01:58;25.20;59.80
13928;DHT22;7036;50.834;4.718;2022-07-23T02:04:25;25.20;59.80
13928;DHT22;7036;50.834;4.718;2022-07-23T02:06:52;25.20;59.80
13928;DHT22;7036;50.834;4.718;2022-07-23T02:09:19;25.20;59.80
13928;DHT22;7036;50.834;4.718;2022-07-23T02:11:46;25.20;59.80
13928;DHT22;7036;50.834;4.718;2022-07-23T02:14:13;25.20;59.80
13928;DHT22;7036;50.834;4.718;2022-07-23T02:16:40;25.20;59.80
13928;DHT22;7036;50.834;4.718;2022-07-23T02:19:07;25.20;59.80
13928;DHT22;7036;50.834;4.718;2022-07-23T02:21:34;25.20;59.80
13928;DHT22;7036;50.834;4.718;2022-07-23T02:24:01;25.20;59.80
13928;DHT22;7036;50.834;4.718;2022-07-23T02:26:28;25.20;59.80
13928;DHT22;7036;50.834;4.718;2022-07-23T02:28:55;25.20;59.70
13928;DHT22;7036;50.834;4.718;2022-07-23T02:31:22;25.20;59.70
13928;DHT22;7036;50.834;4.718;2022-07-23T02:33:49;25.20;59.70
13928;DHT22;7036;50.834;4.718;2022-07-23T02:36:15;25.20;59.70
13928;DHT22;7036;50.834;4.718;2022-07-23T02:38:42;25.20;59.60
13928;DHT22;7036;50.834;4.718;2022-07-23T02:41:09;25.20;59.70
13928;DHT22;7036;50.834;4.718;2022-07-23T02:43:36;25.20;59.70
13928;DHT22;7036;50.834;4.718;2022-07-23T02:46:03;25.10;59.60
13928;DHT22;7036;50.834;4.718;2022-07-23T02:48:30;25.20;59.60
13928;DHT22;7036;50.834;4.718;2022-07-23T02:50:57;25.10;59.60
13928;DHT22;7036;50.834;4.718;2022-07-23T02:53:25;25.10;59.60
13928;DHT22;7036;50.834;4.718;2022-07-23T02:55:51;25.10;59.60
13928;DHT22;7036;50.834;4.718;2022-07-23T02:58:18;25.10;59.50
13928;DHT22;7036;50.834;4.718;2022-07-23T03:00:45;25.10;59.50
13928;DHT22;7036;50.834;4.718;2022-07-23T03:03:12;25.10;59.50
13928;DHT22;7036;50.834;4.718;2022-07-23T03:05:39;25.10;59.50
13928;DHT22;7036;50.834;4.718;2022-07-23T03:08:06;25.10;59.50
13928;DHT22;7036;50.834;4.718;2022-07-23T03:10:33;25.10;59.50
13928;DHT22;7036;50.834;4.718;2022-07-23T03:12:59;25.10;59.40
13928;DHT22;7036;50.834;4.718;2022-07-23T03:15:26;25.10;59.40
13928;DHT22;7036;50.834;4.718;2022-07-23T03:17:53;25.10;59.50
13928;DHT22;7036;50.834;4.718;2022-07-23T03:20:20;25.10;59.40
13928;DHT22;7036;50.834;4.718;2022-07-23T03:22:47;25.10;59.40
13928;DHT22;7036;50.834;4.718;2022-07-23T03:25:14;25.10;59.40
13928;DHT22;7036;50.834;4.718;2022-07-23T03:27:41;25.10;59.40
13928;DHT22;7036;50.834;4.718;2022-07-23T03:30:08;25.10;59.40
13928;DHT22;7036;50.834;4.718;2022-07-23T03:32:35;25.10;59.40
13928;DHT22;7036;50.834;4.718;2022-07-23T03:35:02;25.10;59.40
13928;DHT22;7036;50.834;4.718;2022-07-23T03:37:29;25.10;59.40
13928;DHT22;7036;50.834;4.718;2022-07-23T03:39:55;25.10;59.30
13928;DHT22;7036;50.834;4.718;2022-07-23T03:42:22;25.10;60.00
13928;DHT22;7036;50.834;4.718;2022-07-23T03:44:49;25.10;59.40
13928;DHT22;7036;50.834;4.718;2022-07-23T03:47:17;25.00;59.30
13928;DHT22;7036;50.834;4.718;2022-07-23T03:49:44;25.00;59.20
13928;DHT22;7036;50.834;4.718;2022-07-23T03:52:10;25.00;59.20
13928;DHT22;7036;50.834;4.718;2022-07-23T03:54:37;25.00;59.20
13928;DHT22;7036;50.834;4.718;2022-07-23T03:57:04;25.00;59.20
13928;DHT22;7036;50.834;4.718;2022-07-23T03:59:31;25.00;59.20
13928;DHT22;7036;50.834;4.718;2022-07-23T04:01:58;25.00;59.20
13928;DHT22;7036;50.834;4.718;2022-07-23T04:04:25;25.00;59.20
13928;DHT22;7036;50.834;4.718;2022-07-23T04:06:52;25.00;59.20
13928;DHT22;7036;50.834;4.718;2022-07-23T04:09:19;25.00;59.20
13928;DHT22;7036;50.834;4.718;2022-07-23T04:11:46;25.00;59.10
13928;DHT22;7036;50.834;4.718;2022-07-23T04:14:13;25.00;59.00
13928;DHT22;7036;50.834;4.718;2022-07-23T04:16:40;25.00;59.00
13928;DHT22;7036;50.834;4.718;2022-07-23T04:19:07;25.00;59.20
13928;DHT22;7036;50.834;4.718;2022-07-23T04:21:34;25.00;59.20
13928;DHT22;7036;50.834;4.718;2022-07-23T04:24:01;25.00;59.10
13928;DHT22;7036;50.834;4.718;2022-07-23T04:26:28;25.10;59.10
13928;DHT22;7036;50.834;4.718;2022-07-23T04:28:55;25.00;59.10
13928;DHT22;7036;50.834;4.718;2022-07-23T04:31:22;25.10;59.10
13928;DHT22;7036;50.834;4.718;2022-07-23T04:33:49;25.10;59.40
13928;DHT22;7036;50.834;4.718;2022-07-23T04:36:18;25.10;59.20
13928;DHT22;7036;50.834;4.718;2022-07-23T04:38:46;25.10;59.20
13928;DHT22;7036;50.834;4.718;2022-07-23T04:41:13;25.10;59.10
13928;DHT22;7036;50.834;4.718;2022-07-23T04:43:40;25.00;59.10
13928;DHT22;7036;50.834;4.718;2022-07-23T04:46:07;25.10;59.10
13928;DHT22;7036;50.834;4.718;2022-07-23T04:48:34;25.10;59.20
13928;DHT22;7036;50.834;4.718;2022-07-23T04:51:01;25.10;59.20
13928;DHT22;7036;50.834;4.718;2022-07-23T04:53:28;25.00;59.10
13928;DHT22;7036;50.834;4.718;2022-07-23T04:55:55;25.10;59.10
13928;DHT22;7036;50.834;4.718;2022-07-23T04:58:22;25.10;59.10
13928;DHT22;7036;50.834;4.718;2022-07-23T05:00:48;25.10;59.20
13928;DHT22;7036;50.834;4.718;2022-07-23T05:03:15;25.10;59.20
13928;DHT22;7036;50.834;4.718;2022-07-23T05:05:42;25.10;59.20
13928;DHT22;7036;50.834;4.718;2022-07-23T05:08:09;25.10;59.20
13928;DHT22;7036;50.834;4.718;2022-07-23T05:10:36;25.10;59.20
13928;DHT22;7036;50.834;4.718;2022-07-23T05:13:03;25.10;59.30
13928;DHT22;7036;50.834;4.718;2022-07-23T05:15:30;25.10;59.30
13928;DHT22;7036;50.834;4.718;2022-07-23T05:17:57;25.10;59.30
13928;DHT22;7036;50.834;4.718;2022-07-23T05:20:24;25.10;59.30
13928;DHT22;7036;50.834;4.718;2022-07-23T05:22:51;25.10;59.30
13928;DHT22;7036;50.834;4.718;2022-07-23T05:25:18;25.10;59.30
13928;DHT22;7036;50.834;4.718;2022-07-23T05:27:45;25.10;59.30
13928;DHT22;7036;50.834;4.718;2022-07-23T05:30:12;25.10;59.20
13928;DHT22;7036;50.834;4.718;2022-07-23T05:32:39;25.10;59.30
13928;DHT22;7036;50.834;4.718;2022-07-23T05:35:06;25.10;59.20
13928;DHT22;7036;50.834;4.718;2022-07-23T05:37:33;25.10;59.20
13928;DHT22;7036;50.834;4.718;2022-07-23T05:40:03;25.10;59.20
13928;DHT22;7036;50.834;4.718;2022-07-23T05:42:27;25.10;59.20
13928;DHT22;7036;50.834;4.718;2022-07-23T05:44:54;25.10;59.20
13928;DHT22;7036;50.834;4.718;2022-07-23T05:47:20;25.10;59.20
13928;DHT22;7036;50.834;4.718;2022-07-23T05:49:47;25.10;59.20
13928;DHT22;7036;50.834;4.718;2022-07-23T05:52:14;25.10;59.00
13928;DHT22;7036;50.834;4.718;2022-07-23T05:54:41;25.10;59.10
13928;DHT22;7036;50.834;4.718;2022-07-23T05:57:08;25.10;59.20
13928;DHT22;7036;50.834;4.718;2022-07-23T05:59:35;25.20;59.20
13928;DHT22;7036;50.834;4.718;2022-07-23T06:02:02;25.20;59.30
13928;DHT22;7036;50.834;4.718;2022-07-23T06:04:29;25.10;59.30
13928;DHT22;7036;50.834;4.718;2022-07-23T06:06:56;25.20;59.40
13928;DHT22;7036;50.834;4.718;2022-07-23T06:09:23;25.20;59.50
13928;DHT22;7036;50.834;4.718;2022-07-23T06:11:50;25.20;59.40
13928;DHT22;7036;50.834;4.718;2022-07-23T06:14:17;25.20;59.10
13928;DHT22;7036;50.834;4.718;2022-07-23T06:16:44;25.20;59.30
13928;DHT22;7036;50.834;4.718;2022-07-23T06:19:17;25.20;59.40
13928;DHT22;7036;50.834;4.718;2022-07-23T06:21:43;25.20;59.60
13928;DHT22;7036;50.834;4.718;2022-07-23T06:24:10;25.20;59.30
13928;DHT22;7036;50.834;4.718;2022-07-23T06:26:37;25.20;59.50
13928;DHT22;7036;50.834;4.718;2022-07-23T06:29:04;25.20;59.70
13928;DHT22;7036;50.834;4.718;2022-07-23T06:31:31;25.20;59.60
13928;DHT22;7036;50.834;4.718;2022-07-23T06:33:59;25.20;59.60
13928;DHT22;7036;50.834;4.718;2022-07-23T06:36:26;25.20;59.70
13928;DHT22;7036;50.834;4.718;2022-07-23T06:38:53;25.30;59.60
13928;DHT22;7036;50.834;4.718;2022-07-23T06:41:19;25.30;59.80
13928;DHT22;7036;50.834;4.718;2022-07-23T06:43:46;25.30;59.90
13928;DHT22;7036;50.834;4.718;2022-07-23T06:46:13;25.30;60.60
13928;DHT22;7036;50.834;4.718;2022-07-23T06:48:41;25.30;59.80
13928;DHT22;7036;50.834;4.718;2022-07-23T06:51:08;25.40;59.80
13928;DHT22;7036;50.834;4.718;2022-07-23T06:53:35;25.40;59.80
13928;DHT22;7036;50.834;4.718;2022-07-23T06:56:02;25.40;59.90
13928;DHT22;7036;50.834;4.718;2022-07-23T06:58:29;25.40;59.80
13928;DHT22;7036;50.834;4.718;2022-07-23T07:00:55;25.40;59.90
13928;DHT22;7036;50.834;4.718;2022-07-23T07:03:22;25.40;59.70
13928;DHT22;7036;50.834;4.718;2022-07-23T07:05:49;25.40;60.00
13928;DHT22;7036;50.834;4.718;2022-07-23T07:08:16;25.50;60.00
13928;DHT22;7036;50.834;4.718;2022-07-23T07:10:43;25.40;59.80
13928;DHT22;7036;50.834;4.718;2022-07-23T07:13:10;25.50;60.00
13928;DHT22;7036;50.834;4.718;2022-07-23T07:15:37;25.50;60.00
13928;DHT22;7036;50.834;4.718;2022-07-23T07:18:04;25.50;60.10
13928;DHT22;7036;50.834;4.718;2022-07-23T07:20:31;25.50;60.00
13928;DHT22;7036;50.834;4.718;2022-07-23T07:22:58;25.50;60.20
13928;DHT22;7036;50.834;4.718;2022-07-23T07:25:25;25.60;60.40
13928;DHT22;7036;50.834;4.718;2022-07-23T07:27:52;25.60;60.20
13928;DHT22;7036;50.834;4.718;2022-07-23T07:30:19;25.60;60.20
13928;DHT22;7036;50.834;4.718;2022-07-23T07:32:46;25.60;60.20
13928;DHT22;7036;50.834;4.718;2022-07-23T07:35:13;25.60;60.20
13928;DHT22;7036;50.834;4.718;2022-07-23T07:37:39;25.60;60.10
13928;DHT22;7036;50.834;4.718;2022-07-23T07:40:07;25.60;60.20
13928;DHT22;7036;50.834;4.718;2022-07-23T07:42:34;25.60;60.70
13928;DHT22;7036;50.834;4.718;2022-07-23T07:45:01;25.60;60.60
13928;DHT22;7036;50.834;4.718;2022-07-23T07:47:28;25.60;60.80
13928;DHT22;7036;50.834;4.718;2022-07-23T07:49:55;25.60;60.70
13928;DHT22;7036;50.834;4.718;2022-07-23T07:52:22;25.70;60.60
13928;DHT22;7036;50.834;4.718;2022-07-23T07:54:49;25.70;60.50
13928;DHT22;7036;50.834;4.718;2022-07-23T07:57:16;25.70;60.50
13928;DHT22;7036;50.834;4.718;2022-07-23T07:59:43;25.70;60.40
13928;DHT22;7036;50.834;4.718;2022-07-23T08:02:09;25.70;60.50
13928;DHT22;7036;50.834;4.718;2022-07-23T08:04:36;25.70;60.40
13928;DHT22;7036;50.834;4.718;2022-07-23T08:07:03;25.70;60.40
13928;DHT22;7036;50.834;4.718;2022-07-23T08:09:30;25.70;60.60
13928;DHT22;7036;50.834;4.718;2022-07-23T08:11:57;25.70;60.40
13928;DHT22;7036;50.834;4.718;2022-07-23T08:14:26;25.70;60.40
13928;DHT22;7036;50.834;4.718;2022-07-23T08:16:53;25.70;60.40
13928;DHT22;7036;50.834;4.718;2022-07-23T08:19:21;25.70;60.40
13928;DHT22;7036;50.834;4.718;2022-07-23T08:21:47;25.80;60.40
13928;DHT22;7036;50.834;4.718;2022-07-23T08:24:14;25.70;60.40
13928;DHT22;7036;50.834;4.718;2022-07-23T08:26:41;25.70;60.50
13928;DHT22;7036;50.834;4.718;2022-07-23T08:29:08;25.80;60.40
13928;DHT22;7036;50.834;4.718;2022-07-23T08:31:35;25.80;60.60
13928;DHT22;7036;50.834;4.718;2022-07-23T08:34:02;25.80;60.40
13928;DHT22;7036;50.834;4.718;2022-07-23T08:36:29;25.80;60.40
13928;DHT22;7036;50.834;4.718;2022-07-23T08:38:56;25.80;60.40
13928;DHT22;7036;50.834;4.718;2022-07-23T08:41:23;25.80;60.40
13928;DHT22;7036;50.834;4.718;2022-07-23T08:43:50;25.80;60.50
13928;DHT22;7036;50.834;4.718;2022-07-23T08:46:17;25.80;60.40
13928;DHT22;7036;50.834;4.718;2022-07-23T08:48:44;25.80;60.70
13928;DHT22;7036;50.834;4.718;2022-07-23T08:51:11;25.80;60.50
13928;DHT22;7036;50.834;4.718;2022-07-23T08:53:38;25.80;60.50
13928;DHT22;7036;50.834;4.718;2022-07-23T08:56:05;25.80;60.70
13928;DHT22;7036;50.834;4.718;2022-07-23T08:58:32;25.80;60.70
13928;DHT22;7036;50.834;4.718;2022-07-23T09:00:59;25.80;60.70
13928;DHT22;7036;50.834;4.718;2022-07-23T09:03:29;25.80;60.50
13928;DHT22;7036;50.834;4.718;2022-07-23T09:05:55;25.80;60.60
13928;DHT22;7036;50.834;4.718;2022-07-23T09:08:25;25.80;60.60
13928;DHT22;7036;50.834;4.718;2022-07-23T09:10:58;25.80;60.60
13928;DHT22;7036;50.834;4.718;2022-07-23T09:13:36;25.80;60.40
13928;DHT22;7036;50.834;4.718;2022-07-23T09:16:04;25.80;61.60
13928;DHT22;7036;50.834;4.718;2022-07-23T09:18:34;25.80;60.70
13928;DHT22;7036;50.834;4.718;2022-07-23T09:23:55;25.80;60.60
13928;DHT22;7036;50.834;4.718;2022-07-23T09:28:58;25.80;60.60
13928;DHT22;7036;50.834;4.718;2022-07-23T09:31:24;25.80;60.50
13928;DHT22;7036;50.834;4.718;2022-07-23T09:33:51;25.80;60.60
13928;DHT22;7036;50.834;4.718;2022-07-23T09:36:28;25.80;60.60
13928;DHT22;7036;50.834;4.718;2022-07-23T09:38:54;25.80;60.60
13928;DHT22;7036;50.834;4.718;2022-07-23T09:41:20;25.80;60.60
13928;DHT22;7036;50.834;4.718;2022-07-23T09:43:48;25.80;60.60
13928;DHT22;7036;50.834;4.718;2022-07-23T09:46:21;25.80;60.60
13928;DHT22;7036;50.834;4.718;2022-07-23T09:48:46;25.80;60.70
13928;DHT22;7036;50.834;4.718;2022-07-23T09:51:12;25.80;60.60
13928;DHT22;7036;50.834;4.718;2022-07-23T09:53:39;25.80;60.60
13928;DHT22;7036;50.834;4.718;2022-07-23T09:56:06;25.80;60.60
13928;DHT22;7036;50.834;4.718;2022-07-23T09:58:33;25.80;60.60
13928;DHT22;7036;50.834;4.718;2022-07-23T10:00:59;25.80;60.60
13928;DHT22;7036;50.834;4.718;2022-07-23T10:03:26;25.80;60.60
13928;DHT22;7036;50.834;4.718;2022-07-23T10:05:53;25.80;60.60
13928;DHT22;7036;50.834;4.718;2022-07-23T10:08:20;25.80;60.60
13928;DHT22;7036;50.834;4.718;2022-07-23T10:10:47;25.80;60.60
13928;DHT22;7036;50.834;4.718;2022-07-23T10:13:14;25.80;60.60
13928;DHT22;7036;50.834;4.718;2022-07-23T10:15:50;25.80;60.60
13928;DHT22;7036;50.834;4.718;2022-07-23T10:18:17;25.80;60.50
13928;DHT22;7036;50.834;4.718;2022-07-23T10:20:44;25.80;60.60
13928;DHT22;7036;50.834;4.718;2022-07-23T10:25:52;25.80;60.50
13928;DHT22;7036;50.834;4.718;2022-07-23T10:31:51;25.80;60.60
13928;DHT22;7036;50.834;4.718;2022-07-23T10:36:40;25.80;60.40
13928;DHT22;7036;50.834;4.718;2022-07-23T10:39:08;25.80;60.30
13928;DHT22;7036;50.834;4.718;2022-07-23T10:41:38;25.80;59.70
13928;DHT22;7036;50.834;4.718;2022-07-23T10:44:09;25.80;60.30
13928;DHT22;7036;50.834;4.718;2022-07-23T10:46:33;25.80;60.20
13928;DHT22;7036;50.834;4.718;2022-07-23T10:52:11;25.90;60.20
13928;DHT22;7036;50.834;4.718;2022-07-23T10:54:20;25.90;60.20
13928;DHT22;7036;50.834;4.718;2022-07-23T10:59:23;25.90;60.10
13928;DHT22;7036;50.834;4.718;2022-07-23T11:01:52;25.90;60.20
13928;DHT22;7036;50.834;4.718;2022-07-23T11:04:18;25.90;60.20
13928;DHT22;7036;50.834;4.718;2022-07-23T11:09:30;26.00;60.20
13928;DHT22;7036;50.834;4.718;2022-07-23T11:15:10;25.90;59.70
13928;DHT22;7036;50.834;4.718;2022-07-23T11:17:58;26.00;59.40
13928;DHT22;7036;50.834;4.718;2022-07-23T11:25:11;25.90;58.80
13928;DHT22;7036;50.834;4.718;2022-07-23T11:27:44;25.90;58.60
13928;DHT22;7036;50.834;4.718;2022-07-23T11:35:36;25.90;58.70
13928;DHT22;7036;50.834;4.718;2022-07-23T11:38:23;25.90;58.70
13928;DHT22;7036;50.834;4.718;2022-07-23T11:40:30;25.90;58.70
13928;DHT22;7036;50.834;4.718;2022-07-23T11:43:01;25.90;58.80
13928;DHT22;7036;50.834;4.718;2022-07-23T11:45:31;25.90;58.60
13928;DHT22;7036;50.834;4.718;2022-07-23T11:47:53;25.90;58.50
13928;DHT22;7036;50.834;4.718;2022-07-23T11:50:22;25.90;58.30
13928;DHT22;7036;50.834;4.718;2022-07-23T11:52:47;25.90;58.30
13928;DHT22;7036;50.834;4.718;2022-07-23T11:55:14;25.90;58.20
13928;DHT22;7036;50.834;4.718;2022-07-23T11:57:41;25.90;58.20
13928;DHT22;7036;50.834;4.718;2022-07-23T12:00:15;25.90;58.20
13928;DHT22;7036;50.834;4.718;2022-07-23T12:02:45;25.90;58.20
13928;DHT22;7036;50.834;4.718;2022-07-23T12:05:14;25.90;58.20
13928;DHT22;7036;50.834;4.718;2022-07-23T12:07:41;25.90;58.10
13928;DHT22;7036;50.834;4.718;2022-07-23T12:10:12;25.90;58.20
13928;DHT22;7036;50.834;4.718;2022-07-23T12:12:38;25.90;58.10
13928;DHT22;7036;50.834;4.718;2022-07-23T12:15:04;25.90;57.90
13928;DHT22;7036;50.834;4.718;2022-07-23T12:17:33;26.00;58.10
13928;DHT22;7036;50.834;4.718;2022-07-23T12:19:58;25.90;57.70
13928;DHT22;7036;50.834;4.718;2022-07-23T12:22:26;25.90;57.80
13928;DHT22;7036;50.834;4.718;2022-07-23T12:24:59;25.90;57.90
13928;DHT22;7036;50.834;4.718;2022-07-23T12:27:25;25.90;57.90
13928;DHT22;7036;50.834;4.718;2022-07-23T12:29:52;26.00;57.80
13928;DHT22;7036;50.834;4.718;2022-07-23T12:32:20;25.90;57.70
13928;DHT22;7036;50.834;4.718;2022-07-23T12:34:47;25.90;57.70
13928;DHT22;7036;50.834;4.718;2022-07-23T12:37:33;26.00;57.80
13928;DHT22;7036;50.834;4.718;2022-07-23T12:39:57;25.90;57.70
13928;DHT22;7036;50.834;4.718;2022-07-23T12:42:24;26.00;57.60
13928;DHT22;7036;50.834;4.718;2022-07-23T12:45:10;26.00;57.60
13928;DHT22;7036;50.834;4.718;2022-07-23T12:47:52;26.00;57.70
13928;DHT22;7036;50.834;4.718;2022-07-23T12:50:41;26.00;57.60
13928;DHT22;7036;50.834;4.718;2022-07-23T12:53:23;26.00;57.70
13928;DHT22;7036;50.834;4.718;2022-07-23T12:55:40;26.00;57.70
13928;DHT22;7036;50.834;4.718;2022-07-23T12:58:08;26.00;57.50
13928;DHT22;7036;50.834;4.718;2022-07-23T13:03:22;26.00;57.70
13928;DHT22;7036;50.834;4.718;2022-07-23T13:05:48;26.00;57.60
13928;DHT22;7036;50.834;4.718;2022-07-23T13:08:15;26.00;57.60
13928;DHT22;7036;50.834;4.718;2022-07-23T13:10:42;26.00;57.60
13928;DHT22;7036;50.834;4.718;2022-07-23T13:13:12;26.00;57.60
13928;DHT22;7036;50.834;4.718;2022-07-23T13:15:39;26.00;57.60
13928;DHT22;7036;50.834;4.718;2022-07-23T13:18:06;26.00;57.60
13928;DHT22;7036;50.834;4.718;2022-07-23T13:20:33;26.00;57.60
13928;DHT22;7036;50.834;4.718;2022-07-23T13:23:00;26.00;57.60
13928;DHT22;7036;50.834;4.718;2022-07-23T13:25:26;26.00;57.70
13928;DHT22;7036;50.834;4.718;2022-07-23T13:27:53;26.00;57.70
13928;DHT22;7036;50.834;4.718;2022-07-23T13:30:20;26.00;57.70
13928;DHT22;7036;50.834;4.718;2022-07-23T13:32:48;26.00;57.80
13928;DHT22;7036;50.834;4.718;2022-07-23T13:35:14;26.00;57.70
13928;DHT22;7036;50.834;4.718;2022-07-23T13:37:41;26.00;58.40
13928;DHT22;7036;50.834;4.718;2022-07-23T13:40:10;26.00;57.70
13928;DHT22;7036;50.834;4.718;2022-07-23T13:42:37;26.00;57.80
13928;DHT22;7036;50.834;4.718;2022-07-23T13:45:04;26.10;57.80
13928;DHT22;7036;50.834;4.718;2022-07-23T13:47:31;26.10;57.70
13928;DHT22;7036;50.834;4.718;2022-07-23T13:49:58;26.10;57.50
13928;DHT22;7036;50.834;4.718;2022-07-23T13:52:24;26.10;57.40
13928;DHT22;7036;50.834;4.718;2022-07-23T13:54:51;26.10;57.50
13928;DHT22;7036;50.834;4.718;2022-07-23T13:57:18;26.10;57.60
13928;DHT22;7036;50.834;4.718;2022-07-23T13:59:45;26.10;57.60
13928;DHT22;7036;50.834;4.718;2022-07-23T14:02:13;26.10;57.70
13928;DHT22;7036;50.834;4.718;2022-07-23T14:04:39;26.20;57.80
13928;DHT22;7036;50.834;4.718;2022-07-23T14:07:06;26.10;57.70
13928;DHT22;7036;50.834;4.718;2022-07-23T14:09:33;26.10;57.70
13928;DHT22;7036;50.834;4.718;2022-07-23T14:12:00;26.10;57.80
13928;DHT22;7036;50.834;4.718;2022-07-23T14:14:27;26.10;57.80
13928;DHT22;7036;50.834;4.718;2022-07-23T14:16:54;26.20;57.90
13928;DHT22;7036;50.834;4.718;2022-07-23T14:19:20;26.20;57.90
13928;DHT22;7036;50.834;4.718;2022-07-23T14:21:48;26.20;58.10
13928;DHT22;7036;50.834;4.718;2022-07-23T14:24:16;26.20;58.00
13928;DHT22;7036;50.834;4.718;2022-07-23T14:26:42;26.20;57.90
13928;DHT22;7036;50.834;4.718;2022-07-23T14:29:09;26.20;57.90
13928;DHT22;7036;50.834;4.718;2022-07-23T14:31:36;26.20;58.60
13928;DHT22;7036;50.834;4.718;2022-07-23T14:34:03;26.20;57.90
13928;DHT22;7036;50.834;4.718;2022-07-23T14:36:31;26.30;58.00
13928;DHT22;7036;50.834;4.718;2022-07-23T14:38:58;26.20;57.80
13928;DHT22;7036;50.834;4.718;2022-07-23T14:41:25;26.30;58.20
13928;DHT22;7036;50.834;4.718;2022-07-23T14:43:52;26.30;57.90
13928;DHT22;7036;50.834;4.718;2022-07-23T14:46:19;26.30;57.80
13928;DHT22;7036;50.834;4.718;2022-07-23T14:48:46;26.30;57.80
13928;DHT22;7036;50.834;4.718;2022-07-23T14:51:14;26.30;57.80
13928;DHT22;7036;50.834;4.718;2022-07-23T14:53:40;26.30;57.70
13928;DHT22;7036;50.834;4.718;2022-07-23T14:56:07;26.30;57.70
13928;DHT22;7036;50.834;4.718;2022-07-23T14:58:34;26.30;57.70
13928;DHT22;7036;50.834;4.718;2022-07-23T15:01:03;26.30;57.60
13928;DHT22;7036;50.834;4.718;2022-07-23T15:03:30;26.30;57.70
13928;DHT22;7036;50.834;4.718;2022-07-23T15:06:00;26.40;57.70
13928;DHT22;7036;50.834;4.718;2022-07-23T15:08:27;26.30;57.50
13928;DHT22;7036;50.834;4.718;2022-07-23T15:10:54;26.30;57.50
13928;DHT22;7036;50.834;4.718;2022-07-23T15:13:21;26.30;57.40
13928;DHT22;7036;50.834;4.718;2022-07-23T15:15:48;26.30;57.50
13928;DHT22;7036;50.834;4.718;2022-07-23T15:18:15;26.30;57.40
13928;DHT22;7036;50.834;4.718;2022-07-23T15:20:41;26.30;58.00
13928;DHT22;7036;50.834;4.718;2022-07-23T15:23:08;26.30;57.30
13928;DHT22;7036;50.834;4.718;2022-07-23T15:25:36;26.30;57.30
13928;DHT22;7036;50.834;4.718;2022-07-23T15:28:03;26.30;57.40
13928;DHT22;7036;50.834;4.718;2022-07-23T15:30:30;26.30;57.40
13928;DHT22;7036;50.834;4.718;2022-07-23T15:32:57;26.30;57.40
13928;DHT22;7036;50.834;4.718;2022-07-23T15:35:24;26.40;57.40
13928;DHT22;7036;50.834;4.718;2022-07-23T15:37:51;26.40;57.40
13928;DHT22;7036;50.834;4.718;2022-07-23T15:40:17;26.40;57.40
13928;DHT22;7036;50.834;4.718;2022-07-23T15:42:44;26.40;57.30
13928;DHT22;7036;50.834;4.718;2022-07-23T15:45:11;26.40;57.10
13928;DHT22;7036;50.834;4.718;2022-07-23T15:47:38;26.40;57.10
13928;DHT22;7036;50.834;4.718;2022-07-23T15:50:05;26.40;57.70
13928;DHT22;7036;50.834;4.718;2022-07-23T15:52:32;26.50;57.00
13928;DHT22;7036;50.834;4.718;2022-07-23T15:54:59;26.40;57.00
13928;DHT22;7036;50.834;4.718;2022-07-23T15:57:26;26.50;56.90
13928;DHT22;7036;50.834;4.718;2022-07-23T15:59:53;26.50;56.90
13928;DHT22;7036;50.834;4.718;2022-07-23T16:02:21;26.50;56.80
13928;DHT22;7036;50.834;4.718;2022-07-23T16:04:48;26.50;56.80
13928;DHT22;7036;50.834;4.718;2022-07-23T16:07:14;26.50;56.80
13928;DHT22;7036;50.834;4.718;2022-07-23T16:09:41;26.50;56.80
13928;DHT22;7036;50.834;4.718;2022-07-23T16:12:08;26.50;56.80
13928;DHT22;7036;50.834;4.718;2022-07-23T16:14:35;26.50;56.80
13928;DHT22;7036;50.834;4.718;2022-07-23T16:17:02;26.50;56.70
13928;DHT22;7036;50.834;4.718;2022-07-23T16:19:29;26.50;56.80
13928;DHT22;7036;50.834;4.718;2022-07-23T16:21:56;26.50;56.70
13928;DHT22;7036;50.834;4.718;2022-07-23T16:24:23;26.50;56.70